sensor_id;sensor_type;location;lat;lon;timestamp;temperature;humidity
14670;DHT22;7423;48.722;9.350;2023-01-28T00:01:11;4.60;99.90
14670;DHT22;7423;48.722;9.350;2023-01-28T00:03:39;4.60;99.90
14670;DHT22;7423;48.722;9.350;2023-01-28T00:06:08;4.60;99.90
14670;DHT22;7423;48.722;9.350;2023-01-28T00:08:40;4.60;99.90
14670;DHT22;7423;48.722;9.350;2023-01-28T00:11:10;4.60;99.90
14670;DHT22;7423;48.722;9.350;2023-01-28T00:13:38;4.70;99.90
14670;DHT22;7423;48.722;9.350;2023-01-28T00:16:06;4.70;99.90
14670;DHT22;7423;48.722;9.350;2023-01-28T00:18:35;4.60;99.90
14670;DHT22;7423;48.722;9.350;2023-01-28T00:21:06;4.70;99.90
14670;DHT22;7423;48.722;9.350;2023-01-28T00:23:36;4.60;99.90
14670;DHT22;7423;48.722;9.350;2023-01-28T00:26:06;4.60;99.90
14670;DHT22;7423;48.722;9.350;2023-01-28T00:28:37;4.60;99.90
14670;DHT22;7423;48.722;9.350;2023-01-28T00:31:08;4.60;99.90
14670;DHT22;7423;48.722;9.350;2023-01-28T00:33:36;4.60;99.90
14670;DHT22;7423;48.722;9.350;2023-01-28T00:36:05;4.60;99.90
14670;DHT22;7423;48.722;9.350;2023-01-28T00:38:33;4.60;99.90
14670;DHT22;7423;48.722;9.350;2023-01-28T00:41:10;4.60;99.90
14670;DHT22;7423;48.722;9.350;2023-01-28T00:43:41;4.60;99.90
14670;DHT22;7423;48.722;9.350;2023-01-28T00:46:11;4.60;99.90
14670;DHT22;7423;48.722;9.350;2023-01-28T00:48:40;4.50;99.90
14670;DHT22;7423;48.722;9.350;2023-01-28T00:51:09;4.60;99.90
14670;DHT22;7423;48.722;9.350;2023-01-28T00:53:37;4.60;99.90
14670;DHT22;7423;48.722;9.350;2023-01-28T00:56:06;4.60;99.90
14670;DHT22;7423;48.722;9.350;2023-01-28T00:58:34;4.60;99.90
14670;DHT22;7423;48.722;9.350;2023-01-28T01:01:11;4.60;99.90
14670;DHT22;7423;48.722;9.350;2023-01-28T01:03:38;4.70;99.90
14670;DHT22;7423;48.722;9.350;2023-01-28T01:06:06;4.70;99.90
14670;DHT22;7423;48.722;9.350;2023-01-28T01:08:33;4.70;99.90
14670;DHT22;7423;48.722;9.350;2023-01-28T01:11:01;4.60;99.90
14670;DHT22;7423;48.722;9.350;2023-01-28T01:13:29;4.60;99.90
14670;DHT22;7423;48.722;9.350;2023-01-28T01:16:05;4.60;99.90
14670;DHT22;7423;48.722;9.350;2023-01-28T01:18:37;4.60;99.90
14670;DHT22;7423;48.722;9.350;2023-01-28T01:21:13;4.60;99.90
14670;DHT22;7423;48.722;9.350;2023-01-28T01:23:43;4.60;99.90
14670;DHT22;7423;48.722;9.350;2023-01-28T01:26:10;4.70;99.90
14670;DHT22;7423;48.722;9.350;2023-01-28T01:28:38;4.60;99.90
14670;DHT22;7423;48.722;9.350;2023-01-28T01:31:09;4.60;99.90
14670;DHT22;7423;48.722;9.350;2023-01-28T01:33:38;4.60;99.90
14670;DHT22;7423;48.722;9.350;2023-01-28T01:36:05;4.60;99.90
14670;DHT22;7423;48.722;9.350;2023-01-28T01:38:32;4.60;99.90
14670;DHT22;7423;48.722;9.350;2023-01-28T01:41:00;4.50;99.90
14670;DHT22;7423;48.722;9.350;2023-01-28T01:43:48;4.50;99.90
14670;DHT22;7423;48.722;9.350;2023-01-28T01:46:19;4.40;99.90
14670;DHT22;7423;48.722;9.350;2023-01-28T01:48:50;4.40;99.90
14670;DHT22;7423;48.722;9.350;2023-01-28T01:51:20;4.40;99.90
14670;DHT22;7423;48.722;9.350;2023-01-28T01:53:52;4.40;99.90
14670;DHT22;7423;48.722;9.350;2023-01-28T01:56:23;4.40;99.90
14670;DHT22;7423;48.722;9.350;2023-01-28T01:58:55;4.30;99.90
14670;DHT22;7423;48.722;9.350;2023-01-28T02:01:26;4.30;99.90
14670;DHT22;7423;48.722;9.350;2023-01-28T02:06:27;4.40;99.90
14670;DHT22;7423;48.722;9.350;2023-01-28T02:08:54;4.40;99.90
14670;DHT22;7423;48.722;9.350;2023-01-28T02:11:25;4.40;99.90
14670;DHT22;7423;48.722;9.350;2023-01-28T02:13:57;4.40;99.90
14670;DHT22;7423;48.722;9.350;2023-01-28T02:16:27;4.50;99.90
14670;DHT22;7423;48.722;9.350;2023-01-28T02:18:54;4.50;99.90
14670;DHT22;7423;48.722;9.350;2023-01-28T02:21:46;4.60;99.90
14670;DHT22;7423;48.722;9.350;2023-01-28T02:27:30;4.50;99.90
14670;DHT22;7423;48.722;9.350;2023-01-28T02:30:17;4.50;99.90
14670;DHT22;7423;48.722;9.350;2023-01-28T02:32:56;4.50;99.90
14670;DHT22;7423;48.722;9.350;2023-01-28T02:38:49;4.50;99.90
14670;DHT22;7423;48.722;9.350;2023-01-28T02:41:29;4.50;99.90
14670;DHT22;7423;48.722;9.350;2023-01-28T02:44:01;4.50;99.90
14670;DHT22;7423;48.722;9.350;2023-01-28T02:49:17;4.50;99.90
14670;DHT22;7423;48.722;9.350;2023-01-28T02:52:18;4.50;99.90
14670;DHT22;7423;48.722;9.350;2023-01-28T02:55:20;4.60;99.90
14670;DHT22;7423;48.722;9.350;2023-01-28T03:04:19;4.60;99.90
14670;DHT22;7423;48.722;9.350;2023-01-28T03:06:52;4.60;99.90
14670;DHT22;7423;48.722;9.350;2023-01-28T03:09:22;4.60;99.90
14670;DHT22;7423;48.722;9.350;2023-01-28T03:11:58;4.60;99.90
14670;DHT22;7423;48.722;9.350;2023-01-28T03:14:50;4.70;99.90
14670;DHT22;7423;48.722;9.350;2023-01-28T03:18:02;4.70;99.90
14670;DHT22;7423;48.722;9.350;2023-01-28T03:21:12;4.70;99.90
14670;DHT22;7423;48.722;9.350;2023-01-28T03:27:04;4.70;99.90
14670;DHT22;7423;48.722;9.350;2023-01-28T03:29:53;4.60;99.90
14670;DHT22;7423;48.722;9.350;2023-01-28T03:32:41;4.60;99.90
14670;DHT22;7423;48.722;9.350;2023-01-28T03:35:29;4.60;99.90
14670;DHT22;7423;48.722;9.350;2023-01-28T03:38:18;4.70;99.90
14670;DHT22;7423;48.722;9.350;2023-01-28T03:40:58;4.60;99.90
14670;DHT22;7423;48.722;9.350;2023-01-28T03:43:26;4.70;99.90
14670;DHT22;7423;48.722;9.350;2023-01-28T03:45:54;4.70;99.90
14670;DHT22;7423;48.722;9.350;2023-01-28T03:48:23;4.70;99.90
14670;DHT22;7423;48.722;9.350;2023-01-28T03:50:52;4.70;99.90
14670;DHT22;7423;48.722;9.350;2023-01-28T03:53:21;4.70;99.90
14670;DHT22;7423;48.722;9.350;2023-01-28T03:55:49;4.70;99.90
14670;DHT22;7423;48.722;9.350;2023-01-28T03:58:17;4.70;99.90
14670;DHT22;7423;48.722;9.350;2023-01-28T04:00:45;4.70;99.90
14670;DHT22;7423;48.722;9.350;2023-01-28T04:03:15;4.70;99.90
14670;DHT22;7423;48.722;9.350;2023-01-28T04:05:45;4.70;99.90
14670;DHT22;7423;48.722;9.350;2023-01-28T04:08:25;4.70;99.90
14670;DHT22;7423;48.722;9.350;2023-01-28T04:10:52;4.60;99.90
14670;DHT22;7423;48.722;9.350;2023-01-28T04:13:19;4.60;99.90
14670;DHT22;7423;48.722;9.350;2023-01-28T04:15:46;4.60;99.90
14670;DHT22;7423;48.722;9.350;2023-01-28T04:18:13;4.60;99.90
14670;DHT22;7423;48.722;9.350;2023-01-28T04:20:40;4.60;99.90
14670;DHT22;7423;48.722;9.350;2023-01-28T04:23:07;4.60;99.90
14670;DHT22;7423;48.722;9.350;2023-01-28T04:25:35;4.60;99.90
14670;DHT22;7423;48.722;9.350;2023-01-28T04:28:02;4.60;99.90
14670;DHT22;7423;48.722;9.350;2023-01-28T04:30:29;4.60;99.90
14670;DHT22;7423;48.722;9.350;2023-01-28T04:32:55;4.60;99.90
14670;DHT22;7423;48.722;9.350;2023-01-28T04:35:22;4.70;99.90
14670;DHT22;7423;48.722;9.350;2023-01-28T04:37:49;4.60;99.90
14670;DHT22;7423;48.722;9.350;2023-01-28T04:40:16;4.60;99.90
14670;DHT22;7423;48.722;9.350;2023-01-28T04:42:52;4.60;99.90
14670;DHT22;7423;48.722;9.350;2023-01-28T04:45:20;4.60;99.90
14670;DHT22;7423;48.722;9.350;2023-01-28T04:47:47;4.60;99.90
14670;DHT22;7423;48.722;9.350;2023-01-28T04:50:14;4.70;99.90
14670;DHT22;7423;48.722;9.350;2023-01-28T04:52:41;4.70;99.90
14670;DHT22;7423;48.722;9.350;2023-01-28T04:55:09;4.70;99.90
14670;DHT22;7423;48.722;9.350;2023-01-28T04:57:36;4.70;99.90
14670;DHT22;7423;48.722;9.350;2023-01-28T05:00:04;4.70;99.90
14670;DHT22;7423;48.722;9.350;2023-01-28T05:02:31;4.70;99.90
14670;DHT22;7423;48.722;9.350;2023-01-28T05:04:58;4.60;99.90
14670;DHT22;7423;48.722;9.350;2023-01-28T05:07:26;4.70;99.90
14670;DHT22;7423;48.722;9.350;2023-01-28T05:09:53;4.70;99.90
14670;DHT22;7423;48.722;9.350;2023-01-28T05:12:20;4.70;99.90
14670;DHT22;7423;48.722;9.350;2023-01-28T05:14:47;4.70;99.90
14670;DHT22;7423;48.722;9.350;2023-01-28T05:17:14;4.70;99.90
14670;DHT22;7423;48.722;9.350;2023-01-28T05:19:41;4.60;99.90
14670;DHT22;7423;48.722;9.350;2023-01-28T05:22:08;4.60;99.90
14670;DHT22;7423;48.722;9.350;2023-01-28T05:24:35;4.60;99.90
14670;DHT22;7423;48.722;9.350;2023-01-28T05:27:02;4.70;99.90
14670;DHT22;7423;48.722;9.350;2023-01-28T05:29:28;4.70;99.90
14670;DHT22;7423;48.722;9.350;2023-01-28T05:31:55;4.70;99.90
14670;DHT22;7423;48.722;9.350;2023-01-28T05:34:22;4.70;99.90
14670;DHT22;7423;48.722;9.350;2023-01-28T05:36:49;4.70;99.90
14670;DHT22;7423;48.722;9.350;2023-01-28T05:39:16;4.70;99.90
14670;DHT22;7423;48.722;9.350;2023-01-28T05:41:42;4.70;99.90
14670;DHT22;7423;48.722;9.350;2023-01-28T05:44:09;4.70;99.90
14670;DHT22;7423;48.722;9.350;2023-01-28T05:46:36;4.70;99.90
14670;DHT22;7423;48.722;9.350;2023-01-28T05:49:03;4.80;99.90
14670;DHT22;7423;48.722;9.350;2023-01-28T05:51:34;4.80;99.90
14670;DHT22;7423;48.722;9.350;2023-01-28T05:54:00;4.80;99.90
14670;DHT22;7423;48.722;9.350;2023-01-28T05:56:27;4.80;99.90
14670;DHT22;7423;48.722;9.350;2023-01-28T05:58:54;4.80;99.90
14670;DHT22;7423;48.722;9.350;2023-01-28T06:01:21;4.70;99.90
14670;DHT22;7423;48.722;9.350;2023-01-28T06:03:48;4.80;99.90
14670;DHT22;7423;48.722;9.350;2023-01-28T06:06:14;4.80;99.90
14670;DHT22;7423;48.722;9.350;2023-01-28T06:08:41;4.80;99.90
14670;DHT22;7423;48.722;9.350;2023-01-28T06:11:08;4.80;99.90
14670;DHT22;7423;48.722;9.350;2023-01-28T06:13:35;4.80;99.90
14670;DHT22;7423;48.722;9.350;2023-01-28T06:16:03;4.80;99.90
14670;DHT22;7423;48.722;9.350;2023-01-28T06:18:30;4.80;99.90
14670;DHT22;7423;48.722;9.350;2023-01-28T06:20:57;4.80;99.90
14670;DHT22;7423;48.722;9.350;2023-01-28T06:23:24;4.90;99.90
14670;DHT22;7423;48.722;9.350;2023-01-28T06:25:55;4.90;99.90
14670;DHT22;7423;48.722;9.350;2023-01-28T06:28:22;4.90;99.90
14670;DHT22;7423;48.722;9.350;2023-01-28T06:30:51;4.90;99.90
14670;DHT22;7423;48.722;9.350;2023-01-28T06:33:19;4.90;99.90
14670;DHT22;7423;48.722;9.350;2023-01-28T06:35:46;4.90;99.90
14670;DHT22;7423;48.722;9.350;2023-01-28T06:38:13;4.90;99.90
14670;DHT22;7423;48.722;9.350;2023-01-28T06:40:40;4.90;99.90
14670;DHT22;7423;48.722;9.350;2023-01-28T06:43:07;4.90;99.90
14670;DHT22;7423;48.722;9.350;2023-01-28T06:45:34;5.00;99.90
14670;DHT22;7423;48.722;9.350;2023-01-28T06:48:00;5.00;99.90
14670;DHT22;7423;48.722;9.350;2023-01-28T06:50:29;5.10;99.90
14670;DHT22;7423;48.722;9.350;2023-01-28T06:52:56;5.00;99.90
14670;DHT22;7423;48.722;9.350;2023-01-28T06:55:23;5.00;99.90
14670;DHT22;7423;48.722;9.350;2023-01-28T06:57:50;4.90;99.90
14670;DHT22;7423;48.722;9.350;2023-01-28T07:00:17;4.90;99.90
14670;DHT22;7423;48.722;9.350;2023-01-28T07:02:44;4.90;99.90
14670;DHT22;7423;48.722;9.350;2023-01-28T07:05:11;4.90;99.90
14670;DHT22;7423;48.722;9.350;2023-01-28T07:07:38;4.80;99.90
14670;DHT22;7423;48.722;9.350;2023-01-28T07:10:08;4.80;99.90
14670;DHT22;7423;48.722;9.350;2023-01-28T07:12:36;4.80;99.90
14670;DHT22;7423;48.722;9.350;2023-01-28T07:15:03;4.80;99.90
14670;DHT22;7423;48.722;9.350;2023-01-28T07:17:30;4.70;99.90
14670;DHT22;7423;48.722;9.350;2023-01-28T07:19:57;4.70;99.90
14670;DHT22;7423;48.722;9.350;2023-01-28T07:22:24;4.70;99.90
14670;DHT22;7423;48.722;9.350;2023-01-28T07:24:51;4.70;99.90
14670;DHT22;7423;48.722;9.350;2023-01-28T07:27:18;4.70;99.90
14670;DHT22;7423;48.722;9.350;2023-01-28T07:29:44;4.60;99.90
14670;DHT22;7423;48.722;9.350;2023-01-28T07:32:11;4.60;99.90
14670;DHT22;7423;48.722;9.350;2023-01-28T07:34:38;4.70;99.90
14670;DHT22;7423;48.722;9.350;2023-01-28T07:37:07;4.70;99.90
14670;DHT22;7423;48.722;9.350;2023-01-28T07:39:35;4.70;99.90
14670;DHT22;7423;48.722;9.350;2023-01-28T07:42:02;4.70;99.90
14670;DHT22;7423;48.722;9.350;2023-01-28T07:44:28;5.20;99.90
14670;DHT22;7423;48.722;9.350;2023-01-28T07:46:55;4.80;99.90
14670;DHT22;7423;48.722;9.350;2023-01-28T07:49:22;4.70;99.90
14670;DHT22;7423;48.722;9.350;2023-01-28T07:51:49;4.70;99.90
14670;DHT22;7423;48.722;9.350;2023-01-28T07:54:16;4.70;99.90
14670;DHT22;7423;48.722;9.350;2023-01-28T07:56:43;4.80;99.90
14670;DHT22;7423;48.722;9.350;2023-01-28T07:59:10;4.70;99.90
14670;DHT22;7423;48.722;9.350;2023-01-28T08:01:37;4.70;99.90
14670;DHT22;7423;48.722;9.350;2023-01-28T08:04:04;4.80;99.90
14670;DHT22;7423;48.722;9.350;2023-01-28T08:06:31;4.80;99.90
14670;DHT22;7423;48.722;9.350;2023-01-28T08:09:04;4.80;99.90
14670;DHT22;7423;48.722;9.350;2023-01-28T08:11:31;4.80;99.90
14670;DHT22;7423;48.722;9.350;2023-01-28T08:13:58;4.80;99.90
14670;DHT22;7423;48.722;9.350;2023-01-28T08:16:26;4.80;99.90
14670;DHT22;7423;48.722;9.350;2023-01-28T08:18:54;4.80;99.90
14670;DHT22;7423;48.722;9.350;2023-01-28T08:21:21;4.80;99.90
14670;DHT22;7423;48.722;9.350;2023-01-28T08:23:48;4.80;99.90
14670;DHT22;7423;48.722;9.350;2023-01-28T08:26:15;4.80;99.90
14670;DHT22;7423;48.722;9.350;2023-01-28T08:28:41;4.80;99.90
14670;DHT22;7423;48.722;9.350;2023-01-28T08:31:08;4.80;99.90
14670;DHT22;7423;48.722;9.350;2023-01-28T08:33:36;4.80;99.90
14670;DHT22;7423;48.722;9.350;2023-01-28T08:36:04;4.80;99.90
14670;DHT22;7423;48.722;9.350;2023-01-28T08:38:31;4.80;99.90
14670;DHT22;7423;48.722;9.350;2023-01-28T08:40:58;4.80;99.90
14670;DHT22;7423;48.722;9.350;2023-01-28T08:43:25;4.80;99.90
14670;DHT22;7423;48.722;9.350;2023-01-28T08:45:52;4.80;99.90
14670;DHT22;7423;48.722;9.350;2023-01-28T08:48:19;4.90;99.90
14670;DHT22;7423;48.722;9.350;2023-01-28T08:50:46;5.00;99.90
14670;DHT22;7423;48.722;9.350;2023-01-28T08:53:15;4.90;99.90
14670;DHT22;7423;48.722;9.350;2023-01-28T08:55:44;4.90;99.90
14670;DHT22;7423;48.722;9.350;2023-01-28T08:58:15;5.00;99.90
14670;DHT22;7423;48.722;9.350;2023-01-28T09:00:43;5.00;99.90
14670;DHT22;7423;48.722;9.350;2023-01-28T09:03:11;5.00;99.90
14670;DHT22;7423;48.722;9.350;2023-01-28T09:05:38;5.10;99.90
14670;DHT22;7423;48.722;9.350;2023-01-28T09:08:10;5.10;99.90
14670;DHT22;7423;48.722;9.350;2023-01-28T09:10:38;5.20;99.90
14670;DHT22;7423;48.722;9.350;2023-01-28T09:13:09;5.20;99.90
14670;DHT22;7423;48.722;9.350;2023-01-28T09:15:37;5.20;99.90
14670;DHT22;7423;48.722;9.350;2023-01-28T09:18:04;5.20;99.90
14670;DHT22;7423;48.722;9.350;2023-01-28T09:20:32;5.20;99.90
14670;DHT22;7423;48.722;9.350;2023-01-28T09:23:00;5.30;99.90
14670;DHT22;7423;48.722;9.350;2023-01-28T09:25:27;5.30;99.90
14670;DHT22;7423;48.722;9.350;2023-01-28T09:27:54;5.30;99.90
14670;DHT22;7423;48.722;9.350;2023-01-28T09:30:21;5.40;99.90
14670;DHT22;7423;48.722;9.350;2023-01-28T09:32:51;5.40;99.90
14670;DHT22;7423;48.722;9.350;2023-01-28T09:35:19;5.40;99.90
14670;DHT22;7423;48.722;9.350;2023-01-28T09:37:47;5.40;99.90
14670;DHT22;7423;48.722;9.350;2023-01-28T09:40:20;5.40;99.90
14670;DHT22;7423;48.722;9.350;2023-01-28T09:45:51;5.50;99.90
14670;DHT22;7423;48.722;9.350;2023-01-28T09:48:31;5.60;99.90
14670;DHT22;7423;48.722;9.350;2023-01-28T09:54:10;5.60;99.90
14670;DHT22;7423;48.722;9.350;2023-01-28T09:56:47;5.60;99.90
14670;DHT22;7423;48.722;9.350;2023-01-28T09:59:19;5.70;99.90
14670;DHT22;7423;48.722;9.350;2023-01-28T10:02:01;5.70;99.90
14670;DHT22;7423;48.722;9.350;2023-01-28T10:07:56;5.80;99.90
14670;DHT22;7423;48.722;9.350;2023-01-28T10:10:29;5.80;99.90
14670;DHT22;7423;48.722;9.350;2023-01-28T10:13:50;5.80;99.90
14670;DHT22;7423;48.722;9.350;2023-01-28T10:19:18;5.80;99.90
14670;DHT22;7423;48.722;9.350;2023-01-28T10:22:17;5.80;99.90
14670;DHT22;7423;48.722;9.350;2023-01-28T10:24:54;5.80;99.90
14670;DHT22;7423;48.722;9.350;2023-01-28T10:27:33;5.80;99.90
14670;DHT22;7423;48.722;9.350;2023-01-28T10:30:20;5.70;99.90
14670;DHT22;7423;48.722;9.350;2023-01-28T10:32:52;5.70;99.90
14670;DHT22;7423;48.722;9.350;2023-01-28T10:35:22;5.80;99.90
14670;DHT22;7423;48.722;9.350;2023-01-28T10:37:52;5.80;99.90
14670;DHT22;7423;48.722;9.350;2023-01-28T10:40:25;5.80;99.90
14670;DHT22;7423;48.722;9.350;2023-01-28T10:42:51;5.90;99.90
14670;DHT22;7423;48.722;9.350;2023-01-28T10:48:28;5.90;99.90
14670;DHT22;7423;48.722;9.350;2023-01-28T10:50:59;5.80;99.90
14670;DHT22;7423;48.722;9.350;2023-01-28T10:53:39;5.80;99.90
14670;DHT22;7423;48.722;9.350;2023-01-28T10:56:29;5.80;99.90
14670;DHT22;7423;48.722;9.350;2023-01-28T10:59:01;5.80;99.90
14670;DHT22;7423;48.722;9.350;2023-01-28T11:01:44;5.80;99.90
14670;DHT22;7423;48.722;9.350;2023-01-28T11:04:34;5.80;99.90
14670;DHT22;7423;48.722;9.350;2023-01-28T11:07:14;5.90;99.90
14670;DHT22;7423;48.722;9.350;2023-01-28T11:09:49;5.90;99.90
14670;DHT22;7423;48.722;9.350;2023-01-28T11:12:28;5.90;99.90
14670;DHT22;7423;48.722;9.350;2023-01-28T11:14:57;5.80;99.90
14670;DHT22;7423;48.722;9.350;2023-01-28T11:17:28;5.80;99.90
14670;DHT22;7423;48.722;9.350;2023-01-28T11:20:11;5.80;99.90
14670;DHT22;7423;48.722;9.350;2023-01-28T11:22:44;6.00;99.90
14670;DHT22;7423;48.722;9.350;2023-01-28T11:25:23;5.80;99.90
14670;DHT22;7423;48.722;9.350;2023-01-28T11:27:53;5.80;99.90
14670;DHT22;7423;48.722;9.350;2023-01-28T11:30:32;5.80;99.90
14670;DHT22;7423;48.722;9.350;2023-01-28T11:35:56;5.80;99.90
14670;DHT22;7423;48.722;9.350;2023-01-28T11:38:25;5.80;99.90
14670;DHT22;7423;48.722;9.350;2023-01-28T11:40:54;5.80;99.90
14670;DHT22;7423;48.722;9.350;2023-01-28T11:43:24;5.90;99.90
14670;DHT22;7423;48.722;9.350;2023-01-28T11:49:08;5.90;99.90
14670;DHT22;7423;48.722;9.350;2023-01-28T11:51:57;5.90;99.90
14670;DHT22;7423;48.722;9.350;2023-01-28T11:57:59;5.90;99.90
14670;DHT22;7423;48.722;9.350;2023-01-28T12:06:38;5.90;99.90
14670;DHT22;7423;48.722;9.350;2023-01-28T12:09:24;5.90;99.90
14670;DHT22;7423;48.722;9.350;2023-01-28T12:21:23;5.80;99.90
14670;DHT22;7423;48.722;9.350;2023-01-28T12:24:25;5.80;99.90
14670;DHT22;7423;48.722;9.350;2023-01-28T12:33:16;5.80;99.90
14670;DHT22;7423;48.722;9.350;2023-01-28T12:39:10;5.80;99.90
14670;DHT22;7423;48.722;9.350;2023-01-28T12:42:09;5.80;99.90
14670;DHT22;7423;48.722;9.350;2023-01-28T12:45:04;5.70;99.90
14670;DHT22;7423;48.722;9.350;2023-01-28T12:47:34;5.70;99.90
14670;DHT22;7423;48.722;9.350;2023-01-28T12:50:16;5.70;99.90
14670;DHT22;7423;48.722;9.350;2023-01-28T12:52:51;5.80;99.90
14670;DHT22;7423;48.722;9.350;2023-01-28T12:55:40;5.80;99.90
14670;DHT22;7423;48.722;9.350;2023-01-28T12:58:16;5.80;99.90
14670;DHT22;7423;48.722;9.350;2023-01-28T13:00:50;5.80;99.90
14670;DHT22;7423;48.722;9.350;2023-01-28T13:03:26;5.80;99.90
14670;DHT22;7423;48.722;9.350;2023-01-28T13:06:05;5.80;99.90
14670;DHT22;7423;48.722;9.350;2023-01-28T13:08:36;5.80;99.90
14670;DHT22;7423;48.722;9.350;2023-01-28T13:11:03;5.80;99.90
14670;DHT22;7423;48.722;9.350;2023-01-28T13:13:39;5.80;99.90
14670;DHT22;7423;48.722;9.350;2023-01-28T13:16:09;5.80;99.90
14670;DHT22;7423;48.722;9.350;2023-01-28T13:21:12;5.80;99.90
14670;DHT22;7423;48.722;9.350;2023-01-28T13:23:43;5.80;99.90
14670;DHT22;7423;48.722;9.350;2023-01-28T13:28:49;5.70;99.90
14670;DHT22;7423;48.722;9.350;2023-01-28T13:31:18;5.70;99.90
14670;DHT22;7423;48.722;9.350;2023-01-28T13:34:00;5.70;99.90
14670;DHT22;7423;48.722;9.350;2023-01-28T13:36:45;5.70;99.90
14670;DHT22;7423;48.722;9.350;2023-01-28T13:41:40;5.80;99.90
14670;DHT22;7423;48.722;9.350;2023-01-28T13:44:38;5.80;99.90
14670;DHT22;7423;48.722;9.350;2023-01-28T13:50:05;5.80;99.90
14670;DHT22;7423;48.722;9.350;2023-01-28T13:53:03;5.90;99.90
14670;DHT22;7423;48.722;9.350;2023-01-28T13:55:37;5.90;99.90
14670;DHT22;7423;48.722;9.350;2023-01-28T14:01:21;6.00;99.90
14670;DHT22;7423;48.722;9.350;2023-01-28T14:04:10;6.00;99.90
14670;DHT22;7423;48.722;9.350;2023-01-28T14:07:29;6.00;99.90
14670;DHT22;7423;48.722;9.350;2023-01-28T14:16:59;5.60;99.90
14670;DHT22;7423;48.722;9.350;2023-01-28T14:19:34;5.60;99.90
14670;DHT22;7423;48.722;9.350;2023-01-28T14:22:08;5.50;99.90
14670;DHT22;7423;48.722;9.350;2023-01-28T14:24:36;5.60;99.90
14670;DHT22;7423;48.722;9.350;2023-01-28T14:27:19;5.60;99.90
14670;DHT22;7423;48.722;9.350;2023-01-28T14:30:01;5.60;99.90
14670;DHT22;7423;48.722;9.350;2023-01-28T14:32:30;5.00;99.90
14670;DHT22;7423;48.722;9.350;2023-01-28T14:35:04;5.70;99.90
14670;DHT22;7423;48.722;9.350;2023-01-28T14:37:34;5.80;99.90
14670;DHT22;7423;48.722;9.350;2023-01-28T14:40:06;5.80;99.90
14670;DHT22;7423;48.722;9.350;2023-01-28T14:42:48;5.80;99.90
14670;DHT22;7423;48.722;9.350;2023-01-28T14:52:19;5.70;99.90
14670;DHT22;7423;48.722;9.350;2023-01-28T14:54:50;5.60;99.90
14670;DHT22;7423;48.722;9.350;2023-01-28T14:57:43;5.50;99.90
14670;DHT22;7423;48.722;9.350;2023-01-28T15:00:32;5.60;99.90
14670;DHT22;7423;48.722;9.350;2023-01-28T15:03:08;5.60;99.90
14670;DHT22;7423;48.722;9.350;2023-01-28T15:06:12;5.70;99.90
14670;DHT22;7423;48.722;9.350;2023-01-28T15:08:43;5.70;99.90
14670;DHT22;7423;48.722;9.350;2023-01-28T15:11:13;5.70;99.90
14670;DHT22;7423;48.722;9.350;2023-01-28T15:13:46;5.70;99.90
14670;DHT22;7423;48.722;9.350;2023-01-28T15:16:18;5.80;99.90
14670;DHT22;7423;48.722;9.350;2023-01-28T15:18:48;5.80;99.90
14670;DHT22;7423;48.722;9.350;2023-01-28T15:21:20;5.80;99.90
14670;DHT22;7423;48.722;9.350;2023-01-28T15:23:51;5.80;99.90
14670;DHT22;7423;48.722;9.350;2023-01-28T15:26:25;5.80;99.90
14670;DHT22;7423;48.722;9.350;2023-01-28T15:28:58;5.80;99.90
14670;DHT22;7423;48.722;9.350;2023-01-28T15:31:29;5.80;99.90
14670;DHT22;7423;48.722;9.350;2023-01-28T15:34:17;5.80;99.90
14670;DHT22;7423;48.722;9.350;2023-01-28T15:36:45;5.80;99.90
14670;DHT22;7423;48.722;9.350;2023-01-28T15:39:15;5.80;99.90
14670;DHT22;7423;48.722;9.350;2023-01-28T15:41:52;5.80;99.90
14670;DHT22;7423;48.722;9.350;2023-01-28T15:44:34;5.90;99.90
14670;DHT22;7423;48.722;9.350;2023-01-28T15:47:30;5.90;99.90
14670;DHT22;7423;48.722;9.350;2023-01-28T15:50:02;5.90;99.90
14670;DHT22;7423;48.722;9.350;2023-01-28T15:52:34;4.70;99.90
14670;DHT22;7423;48.722;9.350;2023-01-28T15:55:04;5.80;99.90
14670;DHT22;7423;48.722;9.350;2023-01-28T15:57:33;5.80;99.90
14670;DHT22;7423;48.722;9.350;2023-01-28T16:02:49;5.80;99.90
14670;DHT22;7423;48.722;9.350;2023-01-28T16:05:32;5.80;99.90
14670;DHT22;7423;48.722;9.350;2023-01-28T16:08:11;5.80;99.90
14670;DHT22;7423;48.722;9.350;2023-01-28T16:10:54;5.80;99.90
14670;DHT22;7423;48.722;9.350;2023-01-28T16:13:27;5.80;99.90
14670;DHT22;7423;48.722;9.350;2023-01-28T16:15:57;5.80;99.90
14670;DHT22;7423;48.722;9.350;2023-01-28T16:21:24;5.90;99.90
14670;DHT22;7423;48.722;9.350;2023-01-28T16:24:03;5.90;99.90
14670;DHT22;7423;48.722;9.350;2023-01-28T16:26:33;5.80;99.90
14670;DHT22;7423;48.722;9.350;2023-01-28T16:29:14;5.90;99.90
14670;DHT22;7423;48.722;9.350;2023-01-28T16:31:42;5.70;99.90
14670;DHT22;7423;48.722;9.350;2023-01-28T16:34:10;5.70;99.90
14670;DHT22;7423;48.722;9.350;2023-01-28T16:36:37;5.70;99.90
14670;DHT22;7423;48.722;9.350;2023-01-28T16:39:04;5.80;99.90
14670;DHT22;7423;48.722;9.350;2023-01-28T16:41:45;5.80;99.90
14670;DHT22;7423;48.722;9.350;2023-01-28T16:44:13;5.80;99.90
14670;DHT22;7423;48.722;9.350;2023-01-28T16:46:40;5.80;99.90
14670;DHT22;7423;48.722;9.350;2023-01-28T16:49:08;5.80;99.90
14670;DHT22;7423;48.722;9.350;2023-01-28T16:51:36;5.80;99.90
14670;DHT22;7423;48.722;9.350;2023-01-28T16:54:07;5.80;99.90
14670;DHT22;7423;48.722;9.350;2023-01-28T16:56:37;5.80;99.90
14670;DHT22;7423;48.722;9.350;2023-01-28T16:59:13;5.80;99.90
14670;DHT22;7423;48.722;9.350;2023-01-28T17:01:44;5.80;99.90
14670;DHT22;7423;48.722;9.350;2023-01-28T17:04:11;5.80;99.90
14670;DHT22;7423;48.722;9.350;2023-01-28T17:06:40;5.80;99.90
14670;DHT22;7423;48.722;9.350;2023-01-28T17:09:10;5.80;99.90
14670;DHT22;7423;48.722;9.350;2023-01-28T17:11:38;5.80;99.90
14670;DHT22;7423;48.722;9.350;2023-01-28T17:14:06;5.80;99.90
14670;DHT22;7423;48.722;9.350;2023-01-28T17:16:34;5.80;99.90
14670;DHT22;7423;48.722;9.350;2023-01-28T17:19:01;5.80;99.90
14670;DHT22;7423;48.722;9.350;2023-01-28T17:21:28;5.80;99.90
14670;DHT22;7423;48.722;9.350;2023-01-28T17:23:55;5.80;99.90
14670;DHT22;7423;48.722;9.350;2023-01-28T17:26:24;5.80;99.90
14670;DHT22;7423;48.722;9.350;2023-01-28T17:28:52;5.80;99.90
14670;DHT22;7423;48.722;9.350;2023-01-28T17:31:20;5.80;99.90
14670;DHT22;7423;48.722;9.350;2023-01-28T17:33:55;5.90;99.90
14670;DHT22;7423;48.722;9.350;2023-01-28T17:36:23;5.90;99.90
14670;DHT22;7423;48.722;9.350;2023-01-28T17:38:52;5.80;99.90
14670;DHT22;7423;48.722;9.350;2023-01-28T17:41:19;5.80;99.90
14670;DHT22;7423;48.722;9.350;2023-01-28T17:43:54;5.80;99.90
14670;DHT22;7423;48.722;9.350;2023-01-28T17:46:23;5.80;99.90
14670;DHT22;7423;48.722;9.350;2023-01-28T17:48:51;5.80;99.90
14670;DHT22;7423;48.722;9.350;2023-01-28T17:51:18;5.80;99.90
14670;DHT22;7423;48.722;9.350;2023-01-28T17:53:47;5.70;99.90
14670;DHT22;7423;48.722;9.350;2023-01-28T17:56:23;5.70;99.90
14670;DHT22;7423;48.722;9.350;2023-01-28T17:59:00;5.70;99.90
14670;DHT22;7423;48.722;9.350;2023-01-28T18:01:29;5.70;99.90
14670;DHT22;7423;48.722;9.350;2023-01-28T18:03:57;5.70;99.90
14670;DHT22;7423;48.722;9.350;2023-01-28T18:06:28;5.70;99.90
14670;DHT22;7423;48.722;9.350;2023-01-28T18:09:01;5.60;99.90
14670;DHT22;7423;48.722;9.350;2023-01-28T18:11:29;5.60;99.90
14670;DHT22;7423;48.722;9.350;2023-01-28T18:13:58;5.60;99.90
14670;DHT22;7423;48.722;9.350;2023-01-28T18:16:25;5.60;99.90
14670;DHT22;7423;48.722;9.350;2023-01-28T18:18:52;5.60;99.90